Time;durP1;ratioP1;P1;durP2;ratioP2;P2;SDS_P1;SDS_P2;PMS_P1;PMS_P2;Temp;Humidity;BMP_temperature;BMP_pressure;BME280_temperature;BME280_humidity;BME280_pressure;Samples;Min_cycle;Max_cycle;Signal;HPM_P1;HPM_P2
2022/04/07 00:02:10;;;;;;;7.70;4.47;;;10.70;99.90;;;;;;5133239;27;20043;-60
2022/04/07 00:04:36;;;;;;;5.43;3.90;;;10.60;99.90;;;;;;5132809;27;20067;-60
2022/04/07 00:07:01;;;;;;;9.38;4.43;;;10.60;99.90;;;;;;5133294;27;20392;-60
2022/04/07 00:09:27;;;;;;;6.03;3.47;;;10.60;99.90;;;;;;5132465;27;20034;-60
2022/04/07 00:11:53;;;;;;;10.57;4.57;;;10.70;99.90;;;;;;5133132;27;20494;-60
2022/04/07 00:14:18;;;;;;;6.95;4.28;;;10.70;99.90;;;;;;5133370;27;20038;-60
2022/04/07 00:16:44;;;;;;;6.55;3.80;;;10.70;99.90;;;;;;5133015;27;20388;-60
2022/04/07 00:19:10;;;;;;;9.55;4.07;;;10.70;99.90;;;;;;5132339;27;20031;-59
2022/04/07 00:21:46;;;;;;;6.97;3.80;;;10.70;99.90;;;;;;5133035;27;20023;-60
2022/04/07 00:24:12;;;;;;;6.22;4.13;;;10.70;99.90;;;;;;5132846;27;20030;-60
2022/04/07 00:26:37;;;;;;;9.63;4.43;;;10.60;99.90;;;;;;5133446;27;20361;-60
2022/04/07 00:29:03;;;;;;;9.68;4.47;;;10.50;99.90;;;;;;5132309;27;20121;-60
2022/04/07 00:31:38;;;;;;;9.77;4.90;;;10.40;99.90;;;;;;5132963;27;20019;-60
2022/04/07 00:34:04;;;;;;;6.63;4.30;;;10.30;99.90;;;;;;5132855;27;20472;-60
2022/04/07 00:36:29;;;;;;;8.95;4.65;;;10.30;99.90;;;;;;5132666;27;20091;-60
2022/04/07 00:38:54;;;;;;;9.50;4.72;;;10.30;99.90;;;;;;5132016;27;20310;-60
2022/04/07 00:41:20;;;;;;;8.13;4.65;;;10.20;99.90;;;;;;5132364;27;20057;-60
2022/04/07 00:43:51;;;;;;;8.82;4.45;;;10.20;99.90;;;;;;5132645;27;20083;-60
2022/04/07 00:46:16;;;;;;;;;;;10.20;99.90;;;;;;5131891;27;20051;-59
2022/04/07 00:48:42;;;;;;;8.80;4.65;;;10.20;99.90;;;;;;5131833;27;19939;-59
2022/04/07 00:51:07;;;;;;;7.20;5.03;;;10.20;99.90;;;;;;5131468;27;20053;-60
2022/04/07 00:53:33;;;;;;;6.78;4.20;;;10.20;99.90;;;;;;5130959;27;20019;-60
2022/04/07 00:56:00;;;;;;;5.50;4.13;;;10.20;99.90;;;;;;5132226;27;20033;-60
2022/04/07 00:58:31;;;;;;;10.30;5.07;;;10.30;99.90;;;;;;5132070;27;20027;-60
2022/04/07 01:00:57;;;;;;;8.95;4.43;;;10.30;99.90;;;;;;5131461;27;20530;-60
2022/04/07 01:03:22;;;;;;;13.57;4.85;;;10.40;99.90;;;;;;5132058;27;20035;-61
2022/04/07 01:05:49;;;;;;;8.13;3.78;;;10.40;99.90;;;;;;5132503;27;20080;-60
2022/04/07 01:08:15;;;;;;;6.88;4.28;;;10.40;99.90;;;;;;5132127;27;20115;-60
2022/04/07 01:10:42;;;;;;;7.68;4.63;;;10.40;99.90;;;;;;5131629;27;20531;-60
2022/04/07 01:13:08;;;;;;;7.75;4.50;;;10.40;99.90;;;;;;5132494;27;20396;-60
2022/04/07 01:15:33;;;;;;;6.53;3.95;;;10.30;99.90;;;;;;5132098;27;20019;-60
2022/04/07 01:18:00;;;;;;;10.48;4.63;;;10.30;99.90;;;;;;5132191;27;20602;-60
2022/04/07 01:20:26;;;;;;;6.22;4.53;;;10.30;99.90;;;;;;5131154;27;20581;-60
2022/04/07 01:22:52;;;;;;;8.40;4.20;;;10.30;99.90;;;;;;5130524;27;20168;-60
2022/04/07 01:25:17;;;;;;;9.02;4.45;;;10.30;99.90;;;;;;5132174;27;20141;-60
2022/04/07 01:27:48;;;;;;;8.02;4.55;;;10.30;99.90;;;;;;5131627;27;20074;-60
2022/04/07 01:30:15;;;;;;;5.82;3.97;;;10.30;99.90;;;;;;5131221;27;20480;-60
2022/04/07 01:32:47;;;;;;;6.03;4.45;;;10.30;99.90;;;;;;5131694;27;20042;-61
2022/04/07 01:35:13;;;;;;;7.35;4.32;;;10.20;99.90;;;;;;5131678;27;20543;-59
2022/04/07 01:37:42;;;;;;;7.53;4.40;;;10.20;99.90;;;;;;5131576;27;20035;-60
2022/04/07 01:40:09;;;;;;;6.72;3.97;;;10.20;99.90;;;;;;5130680;27;20527;-60
2022/04/07 01:42:37;;;;;;;8.50;4.13;;;10.20;99.90;;;;;;5131238;27;20114;-60
2022/04/07 01:45:04;;;;;;;10.02;4.63;;;10.20;99.90;;;;;;5131437;27;20488;-60
2022/04/07 01:47:33;;;;;;;8.82;4.25;;;10.20;99.90;;;;;;5129906;27;20490;-60
2022/04/07 01:50:09;;;;;;;7.15;4.82;;;10.20;99.90;;;;;;5130868;27;20492;-59
2022/04/07 01:52:38;;;;;;;9.23;4.65;;;10.20;99.90;;;;;;5129806;27;20027;-61
2022/04/07 01:55:04;;;;;;;8.10;4.88;;;10.20;99.90;;;;;;5131227;27;20126;-60
2022/04/07 01:57:31;;;;;;;9.10;4.80;;;10.20;99.90;;;;;;5130977;27;20080;-60
2022/04/07 01:59:58;;;;;;;7.93;5.50;;;10.20;99.90;;;;;;5130391;27;20034;-60
2022/04/07 02:02:24;;;;;;;13.75;5.80;;;10.30;99.90;;;;;;5130421;27;20027;-60
2022/04/07 02:04:56;;;;;;;12.77;6.18;;;10.30;99.90;;;;;;5130783;27;20026;-60
2022/04/07 02:07:22;;;;;;;10.75;5.78;;;10.20;99.90;;;;;;5129447;27;20027;-60
2022/04/07 02:09:48;;;;;;;13.18;6.40;;;10.10;99.90;;;;;;5130220;27;20110;-60
2022/04/07 02:12:15;;;;;;;8.57;6.03;;;10.10;99.90;;;;;;5130679;27;20094;-60
2022/04/07 02:14:40;;;;;;;11.15;6.97;;;9.90;99.90;;;;;;5130703;27;20449;-60
2022/04/07 02:17:06;;;;;;;11.30;6.72;;;9.90;99.90;;;;;;5130945;27;20026;-60
2022/04/07 02:19:33;;;;;;;9.57;6.88;;;9.80;99.90;;;;;;5128565;27;20529;-60
2022/04/07 02:21:58;;;;;;;14.48;7.30;;;9.80;99.90;;;;;;5129467;27;20538;-60
2022/04/07 02:24:24;;;;;;;9.82;6.22;;;9.70;99.90;;;;;;5130730;27;20059;-60
2022/04/07 02:26:49;;;;;;;12.13;7.57;;;9.60;99.90;;;;;;5130747;27;20058;-60
2022/04/07 02:29:15;;;;;;;12.20;7.25;;;9.50;99.90;;;;;;5130111;27;20062;-60
2022/04/07 02:31:40;;;;;;;15.52;6.70;;;9.50;99.90;;;;;;5130616;27;20386;-60
2022/04/07 02:34:06;;;;;;;13.27;7.07;;;9.40;99.90;;;;;;5130555;27;20027;-60
2022/04/07 02:36:32;;;;;;;13.60;6.75;;;9.50;99.90;;;;;;5130383;27;20046;-60
2022/04/07 02:38:57;;;;;;;12.98;7.35;;;9.40;99.90;;;;;;5129520;27;20467;-60
2022/04/07 02:41:24;;;;;;;13.98;6.40;;;9.40;99.90;;;;;;5130184;27;20422;-60
2022/04/07 02:43:50;;;;;;;11.63;7.63;;;9.40;99.90;;;;;;5130117;27;20510;-60
2022/04/07 02:46:16;;;;;;;13.70;7.20;;;9.40;99.90;;;;;;5130122;27;20416;-60
2022/04/07 02:48:41;;;;;;;12.15;6.60;;;9.40;99.90;;;;;;5129467;27;20019;-60
2022/04/07 02:51:07;;;;;;;12.80;6.80;;;9.40;99.90;;;;;;5130208;27;20171;-60
2022/04/07 02:53:32;;;;;;;15.65;8.02;;;9.40;99.90;;;;;;5129869;27;20028;-60
2022/04/07 02:55:57;;;;;;;10.10;6.40;;;9.40;99.90;;;;;;5130062;27;20027;-60
2022/04/07 02:58:23;;;;;;;12.68;6.65;;;9.40;99.90;;;;;;5130016;27;20396;-60
2022/04/07 03:00:48;;;;;;;11.30;7.13;;;9.50;99.90;;;;;;5129417;27;20035;-60
2022/04/07 03:03:14;;;;;;;9.95;6.07;;;9.50;99.90;;;;;;5129858;27;20034;-60
2022/04/07 03:05:39;;;;;;;10.55;6.20;;;9.50;99.90;;;;;;5129810;27;20031;-60
2022/04/07 03:08:05;;;;;;;9.95;6.13;;;9.50;99.90;;;;;;5129687;27;20035;-60
2022/04/07 03:10:31;;;;;;;8.95;5.95;;;9.50;99.90;;;;;;5121680;27;20407;-60
2022/04/07 03:12:57;;;;;;;8.15;4.90;;;9.60;99.90;;;;;;5117581;27;20023;-59
2022/04/07 03:15:23;;;;;;;8.32;5.03;;;9.60;99.90;;;;;;5118077;27;20403;-60
2022/04/07 03:17:48;;;;;;;7.30;5.18;;;9.60;99.90;;;;;;5118609;27;20076;-60
2022/04/07 03:20:14;;;;;;;10.75;4.55;;;9.60;99.90;;;;;;5118878;27;20035;-60
2022/04/07 03:22:39;;;;;;;5.78;3.97;;;9.50;99.90;;;;;;5118124;27;20055;-60
2022/04/07 03:25:05;;;;;;;6.45;3.65;;;9.50;99.90;;;;;;5117680;27;20016;-60
2022/04/07 03:27:31;;;;;;;7.13;3.60;;;9.60;99.90;;;;;;5119521;27;20392;-59
2022/04/07 03:29:56;;;;;;;6.30;3.55;;;9.50;99.90;;;;;;5118411;27;20376;-59
2022/04/07 03:32:22;;;;;;;4.50;3.60;;;9.40;99.90;;;;;;5118395;28;20050;-59
2022/04/07 03:34:47;;;;;;;5.47;3.13;;;9.50;99.90;;;;;;5119356;27;20026;-59
2022/04/07 03:37:14;;;;;;;8.50;3.00;;;9.40;99.90;;;;;;5118680;27;20023;-60
2022/04/07 03:39:40;;;;;;;5.57;2.97;;;9.40;99.90;;;;;;5117189;28;20058;-60
2022/04/07 03:42:06;;;;;;;3.17;2.75;;;9.40;99.90;;;;;;5119752;28;20276;-60
2022/04/07 03:44:31;;;;;;;4.07;2.60;;;9.40;99.90;;;;;;5118106;28;20023;-60
2022/04/07 03:46:58;;;;;;;6.00;3.17;;;9.40;99.90;;;;;;5117526;28;20073;-60
2022/04/07 03:49:24;;;;;;;5.85;3.45;;;9.40;99.90;;;;;;5119332;28;20469;-60
2022/04/07 03:51:49;;;;;;;5.55;3.85;;;9.30;99.90;;;;;;5118848;28;20027;-60
2022/04/07 03:54:17;;;;;;;4.97;3.30;;;9.30;99.90;;;;;;5122519;28;20524;-60
2022/04/07 03:56:43;;;;;;;5.63;3.47;;;9.30;99.90;;;;;;5129511;28;20027;-60
2022/04/07 03:59:08;;;;;;;3.28;2.78;;;9.20;99.90;;;;;;5119617;28;20561;-60
2022/04/07 04:01:35;;;;;;;3.92;2.85;;;9.20;99.90;;;;;;5117285;28;20082;-54
2022/04/07 04:04:01;;;;;;;5.53;2.78;;;9.30;99.90;;;;;;5119024;28;20098;-60
2022/04/07 04:06:27;;;;;;;4.35;2.78;;;9.30;99.90;;;;;;5127846;28;20103;-60
2022/04/07 04:08:52;;;;;;;7.00;2.97;;;9.30;99.90;;;;;;5128371;28;20031;-59
2022/04/07 04:11:18;;;;;;;3.97;2.70;;;9.20;99.90;;;;;;5128033;27;20043;-60
2022/04/07 04:13:45;;;;;;;3.83;2.60;;;9.20;99.90;;;;;;5129274;28;20046;-60
2022/04/07 04:16:14;;;;;;;5.88;2.88;;;9.30;99.90;;;;;;5129097;27;20054;-60
2022/04/07 04:18:41;;;;;;;5.57;2.38;;;9.30;99.90;;;;;;5128674;28;20027;-60
2022/04/07 04:21:06;;;;;;;4.43;2.63;;;9.30;99.90;;;;;;5129224;28;20023;-60
2022/04/07 04:23:32;;;;;;;6.90;2.55;;;9.20;99.90;;;;;;5129179;28;20015;-60
2022/04/07 04:25:58;;;;;;;4.40;2.22;;;9.30;99.90;;;;;;5130136;27;20027;-61
2022/04/07 04:28:23;;;;;;;3.65;2.50;;;9.30;99.90;;;;;;5132587;27;20046;-60
2022/04/07 04:30:49;;;;;;;5.18;2.53;;;9.20;99.90;;;;;;5132016;27;20106;-60
2022/04/07 04:33:14;;;;;;;3.63;2.60;;;9.20;99.90;;;;;;5132675;27;20488;-60
2022/04/07 04:35:40;;;;;;;4.78;2.67;;;9.20;99.90;;;;;;5132774;27;20023;-60
2022/04/07 04:38:05;;;;;;;3.80;2.30;;;9.20;99.90;;;;;;5132819;27;20042;-60
2022/04/07 04:40:31;;;;;;;3.03;2.08;;;9.20;99.90;;;;;;5132307;27;20138;-60
2022/04/07 04:42:56;;;;;;;3.95;2.45;;;9.20;99.90;;;;;;5131425;27;20431;-60
2022/04/07 04:45:22;;;;;;;4.13;2.83;;;9.20;99.90;;;;;;5132354;27;20030;-60
2022/04/07 04:47:49;;;;;;;4.93;2.53;;;9.20;99.90;;;;;;5132397;27;20038;-60
2022/04/07 04:50:15;;;;;;;5.15;2.72;;;9.30;99.90;;;;;;5125410;27;20392;-50
2022/04/07 04:52:40;;;;;;;3.60;2.70;;;9.20;99.90;;;;;;5132749;27;20015;-51
2022/04/07 04:55:07;;;;;;;6.60;3.00;;;9.30;99.90;;;;;;5132608;27;20019;-49
2022/04/07 04:57:32;;;;;;;5.60;2.83;;;9.30;99.90;;;;;;5132633;27;20020;-52
2022/04/07 04:59:58;;;;;;;5.15;2.67;;;9.30;99.90;;;;;;5132011;27;20025;-49
2022/04/07 05:02:24;;;;;;;6.10;2.88;;;9.40;99.90;;;;;;5130418;27;20027;-48
2022/04/07 05:04:49;;;;;;;4.07;2.50;;;9.40;99.90;;;;;;5130816;27;20043;-49
2022/04/07 05:07:14;;;;;;;8.77;2.35;;;9.40;99.90;;;;;;5132309;27;20023;-50
2022/04/07 05:09:40;;;;;;;3.35;2.00;;;9.50;99.90;;;;;;5131522;27;20020;-48
2022/04/07 05:12:06;;;;;;;3.50;2.30;;;9.50;99.90;;;;;;5132270;27;20369;-49
2022/04/07 05:14:31;;;;;;;6.63;1.98;;;9.60;99.90;;;;;;5129474;27;20059;-52
2022/04/07 05:16:57;;;;;;;3.25;2.22;;;9.60;99.90;;;;;;5125127;27;20092;-51
2022/04/07 05:19:22;;;;;;;3.90;2.03;;;9.60;99.90;;;;;;5128271;27;20249;-49
2022/04/07 05:21:50;;;;;;;5.30;2.50;;;9.60;99.90;;;;;;5129690;27;20084;-51
2022/04/07 05:24:19;;;;;;;6.15;2.88;;;9.60;99.90;;;;;;5125124;27;20111;-49
2022/04/07 05:26:45;;;;;;;2.90;2.60;;;9.60;99.90;;;;;;5126455;27;20390;-51
2022/04/07 05:29:11;;;;;;;3.55;2.83;;;9.60;99.90;;;;;;5145882;27;20030;-51
2022/04/07 05:31:37;;;;;;;5.55;2.50;;;9.80;99.90;;;;;;5134853;27;20019;-50
2022/04/07 05:34:02;;;;;;;3.08;2.50;;;9.70;99.90;;;;;;5145639;27;20015;-51
2022/04/07 05:36:28;;;;;;;4.70;2.50;;;9.80;99.90;;;;;;5141872;27;20030;-51
2022/04/07 05:38:53;;;;;;;6.32;3.00;;;9.80;99.90;;;;;;5136907;27;20019;-48
2022/04/07 05:41:19;;;;;;;4.13;2.90;;;9.90;99.90;;;;;;5132104;27;20492;-48
2022/04/07 05:43:44;;;;;;;6.32;3.00;;;9.90;99.90;;;;;;5125407;27;20020;-51
2022/04/07 05:46:10;;;;;;;6.45;3.03;;;9.90;99.90;;;;;;5118691;27;20030;-50
2022/04/07 05:48:35;;;;;;;5.28;2.70;;;9.90;99.90;;;;;;5112197;28;20031;-52
2022/04/07 05:51:01;;;;;;;5.35;2.35;;;10.00;99.90;;;;;;5112751;28;20043;-51
2022/04/07 05:53:27;;;;;;;4.03;2.40;;;10.00;99.90;;;;;;5112599;28;20030;-49
2022/04/07 05:55:52;;;;;;;7.20;2.83;;;10.00;99.90;;;;;;5112599;28;20035;-49
2022/04/07 05:58:19;;;;;;;6.38;2.47;;;10.00;99.90;;;;;;5121967;27;20023;-50
2022/04/07 06:00:45;;;;;;;5.60;2.85;;;10.10;99.90;;;;;;5128970;27;20055;-49
2022/04/07 06:03:11;;;;;;;7.40;2.85;;;10.10;99.90;;;;;;5124713;27;20023;-48
2022/04/07 06:05:37;;;;;;;2.78;2.15;;;10.20;99.90;;;;;;5121061;27;20475;-46
2022/04/07 06:08:03;;;;;;;4.82;2.22;;;10.20;99.90;;;;;;5119415;27;20059;-48
2022/04/07 06:10:29;;;;;;;3.10;1.80;;;10.30;99.90;;;;;;5109948;28;20016;-51
2022/04/07 06:12:54;;;;;;;5.88;1.60;;;10.40;99.90;;;;;;5123869;27;20031;-51
2022/04/07 06:15:20;;;;;;;3.72;1.83;;;10.40;99.90;;;;;;5130980;27;20015;-51
2022/04/07 06:17:46;;;;;;;3.00;1.48;;;10.50;99.90;;;;;;5130774;27;20434;-49
2022/04/07 06:20:13;;;;;;;6.65;1.67;;;10.50;99.90;;;;;;5130273;27;20413;-52
2022/04/07 06:22:39;;;;;;;5.00;1.30;;;10.60;99.90;;;;;;5126121;27;20107;-49
2022/04/07 06:25:05;;;;;;;1.92;1.25;;;10.70;99.90;;;;;;5110201;28;20644;-50
2022/04/07 06:27:34;;;;;;;3.03;1.48;;;10.70;99.90;;;;;;5109834;28;20043;-48
2022/04/07 06:29:59;;;;;;;3.03;1.48;;;10.80;99.90;;;;;;5109474;28;20054;-49
2022/04/07 06:32:25;;;;;;;2.58;0.90;;;10.90;99.90;;;;;;5109997;28;20134;-50
2022/04/07 06:34:50;;;;;;;7.18;1.40;;;11.00;99.90;;;;;;5109956;28;20103;-48
2022/04/07 06:37:16;;;;;;;1.30;0.98;;;10.80;99.90;;;;;;5109897;28;20493;-49
2022/04/07 06:39:41;;;;;;;2.22;1.20;;;10.80;99.90;;;;;;5109094;28;20023;-51
2022/04/07 06:42:07;;;;;;;2.50;1.20;;;11.00;99.90;;;;;;5110832;28;20031;-49
2022/04/07 06:44:32;;;;;;;4.00;1.20;;;10.90;99.90;;;;;;5111463;28;20023;-51
2022/04/07 06:46:58;;;;;;;1.83;1.10;;;10.90;99.90;;;;;;5111347;28;20039;-49
2022/04/07 06:49:23;;;;;;;4.72;1.42;;;10.90;99.90;;;;;;5110615;28;20141;-50
2022/04/07 06:51:49;;;;;;;3.38;1.30;;;11.00;99.90;;;;;;5111350;28;20044;-50
2022/04/07 06:54:14;;;;;;;3.22;1.38;;;11.00;99.90;;;;;;5109935;28;20365;-50
2022/04/07 06:56:39;;;;;;;2.33;1.10;;;11.10;99.90;;;;;;5111077;28;20038;-51
2022/04/07 06:59:06;;;;;;;2.00;0.98;;;11.20;99.90;;;;;;5110208;28;20027;-50
2022/04/07 07:01:32;;;;;;;3.45;1.10;;;11.30;99.90;;;;;;5110807;28;20028;-49
2022/04/07 07:03:57;;;;;;;4.75;1.17;;;11.40;99.90;;;;;;5110966;28;20034;-52
2022/04/07 07:06:23;;;;;;;2.35;1.17;;;11.40;99.90;;;;;;5116589;27;20058;-50
2022/04/07 07:08:48;;;;;;;1.85;0.95;;;11.30;99.90;;;;;;5119531;27;20031;-51
2022/04/07 07:11:14;;;;;;;4.03;1.35;;;11.30;99.90;;;;;;5118590;27;20384;-51
2022/04/07 07:13:39;;;;;;;3.72;0.95;;;11.30;99.90;;;;;;5120106;27;20016;-52
2022/04/07 07:16:05;;;;;;;2.92;1.17;;;11.40;99.90;;;;;;5118105;27;20051;-51
2022/04/07 07:18:31;;;;;;;2.67;1.45;;;11.40;99.90;;;;;;5129551;27;20023;-52
2022/04/07 07:20:56;;;;;;;2.90;1.15;;;11.50;99.90;;;;;;5129471;27;20046;-47
2022/04/07 07:23:22;;;;;;;3.50;1.05;;;11.50;99.90;;;;;;5129821;27;20433;-49
2022/04/07 07:25:47;;;;;;;4.20;1.80;;;11.60;99.90;;;;;;5130027;27;20030;-49
2022/04/07 07:28:13;;;;;;;2.40;1.10;;;11.70;99.90;;;;;;5129551;27;20045;-48
2022/04/07 07:30:39;;;;;;;3.65;1.52;;;12.20;99.90;;;;;;5127811;27;20023;-49
2022/04/07 07:33:04;;;;;;;2.53;1.13;;;12.60;99.90;;;;;;5128617;27;20094;-49
2022/04/07 07:35:30;;;;;;;1.58;1.00;;;13.00;99.90;;;;;;5122077;28;20026;-51
2022/04/07 07:38:01;;;;;;;1.88;1.00;;;13.30;99.90;;;;;;5125418;28;20495;-47
2022/04/07 07:40:30;;;;;;;6.65;1.17;;;13.40;99.90;;;;;;5128245;27;20019;-48
2022/04/07 07:42:56;;;;;;;1.73;1.02;;;13.30;99.90;;;;;;5129220;27;20408;-52
2022/04/07 07:45:26;;;;;;;2.58;1.00;;;13.20;99.90;;;;;;5128839;28;20042;-49
2022/04/07 07:47:54;;;;;;;1.23;0.75;;;13.20;99.90;;;;;;5127485;28;20035;-49
2022/04/07 07:50:21;;;;;;;2.92;1.10;;;13.10;99.90;;;;;;5128327;27;20034;-50
2022/04/07 07:52:47;;;;;;;4.50;0.95;;;12.90;99.90;;;;;;5128861;27;20047;-51
2022/04/07 07:55:12;;;;;;;1.25;0.98;;;12.80;99.90;;;;;;5127688;28;20548;-47
2022/04/07 07:57:38;;;;;;;2.78;0.85;;;12.80;99.90;;;;;;5128979;27;20061;-48
2022/04/07 08:00:07;;;;;;;2.25;1.05;;;12.70;99.90;;;;;;5128277;27;20144;-47
2022/04/07 08:02:36;;;;;;;2.85;0.80;;;12.80;99.90;;;;;;5132657;27;20114;-50
2022/04/07 08:05:02;;;;;;;1.38;0.80;;;12.80;99.90;;;;;;5132994;27;20169;-48
2022/04/07 08:07:27;;;;;;;1.45;0.70;;;12.90;99.90;;;;;;5132609;27;20365;-46
2022/04/07 08:09:56;;;;;;;1.65;0.70;;;12.90;99.90;;;;;;5131900;27;20383;-47
2022/04/07 08:12:25;;;;;;;0.50;0.50;;;12.60;99.90;;;;;;5132966;27;20518;-47
2022/04/07 08:14:50;;;;;;;0.70;0.70;;;12.70;99.90;;;;;;5121463;27;20118;-48
2022/04/07 08:17:16;;;;;;;1.25;0.60;;;12.70;99.90;;;;;;5123019;27;20126;-50
2022/04/07 08:19:42;;;;;;;2.25;0.60;;;12.70;99.90;;;;;;5123323;27;20030;-47
2022/04/07 08:22:07;;;;;;;1.95;0.68;;;12.60;99.90;;;;;;5132858;27;20019;-48
2022/04/07 08:24:34;;;;;;;1.73;0.50;;;12.60;99.90;;;;;;5132643;27;20023;-47
2022/04/07 08:27:00;;;;;;;0.77;0.63;;;12.60;99.90;;;;;;5131296;27;20023;-47
2022/04/07 08:29:25;;;;;;;0.57;0.55;;;12.70;99.90;;;;;;5131531;27;20031;-47
2022/04/07 08:31:51;;;;;;;0.70;0.57;;;12.80;99.90;;;;;;5132660;27;20030;-46
2022/04/07 08:34:18;;;;;;;0.77;0.63;;;12.80;99.90;;;;;;5132135;27;20027;-47
2022/04/07 08:36:44;;;;;;;0.50;0.50;;;12.80;99.90;;;;;;5128634;27;20070;-47
2022/04/07 08:39:09;;;;;;;0.77;0.77;;;12.90;99.90;;;;;;5129635;27;20035;-47
2022/04/07 08:41:37;;;;;;;1.77;0.50;;;13.00;99.90;;;;;;5130672;27;20055;-48
2022/04/07 08:44:03;;;;;;;2.45;0.70;;;13.10;99.90;;;;;;5132150;27;20023;-50
2022/04/07 08:46:31;;;;;;;1.27;0.80;;;13.20;99.90;;;;;;5130712;27;20027;-48
2022/04/07 08:49:00;;;;;;;2.38;0.80;;;13.20;99.90;;;;;;5131357;27;20403;-47
2022/04/07 08:51:28;;;;;;;0.68;0.68;;;13.10;99.90;;;;;;5131924;27;20016;-47
2022/04/07 08:53:54;;;;;;;0.60;0.60;;;13.10;99.90;;;;;;5132112;27;20319;-48
2022/04/07 08:56:19;;;;;;;0.80;0.50;;;13.10;99.90;;;;;;5131929;27;20027;-45
2022/04/07 08:58:45;;;;;;;1.88;0.70;;;12.90;99.90;;;;;;5131163;27;20034;-49
2022/04/07 09:01:10;;;;;;;1.30;1.00;;;13.00;99.90;;;;;;5130159;27;20126;-47
2022/04/07 09:03:36;;;;;;;1.15;0.77;;;13.10;99.90;;;;;;5113087;27;20027;-47
2022/04/07 09:06:03;;;;;;;2.10;0.75;;;13.10;99.90;;;;;;5128578;27;20031;-48
2022/04/07 09:08:30;;;;;;;2.67;0.80;;;13.10;99.90;;;;;;5131613;27;20380;-47
2022/04/07 09:10:58;;;;;;;1.60;1.00;;;13.00;99.90;;;;;;5131284;27;20286;-50
2022/04/07 09:13:24;;;;;;;1.38;0.63;;;13.00;99.90;;;;;;5130251;27;20016;-46
2022/04/07 09:15:49;;;;;;;1.05;0.70;;;13.20;99.90;;;;;;5131643;27;20365;-48
2022/04/07 09:18:24;;;;;;;1.27;0.60;;;13.00;99.90;;;;;;5131523;27;20119;-47
2022/04/07 09:20:51;;;;;;;0.73;0.70;;;13.20;99.90;;;;;;5130682;27;20033;-50
2022/04/07 09:23:20;;;;;;;0.75;0.60;;;13.20;99.90;;;;;;5131487;27;20109;-47
2022/04/07 09:25:49;;;;;;;0.88;0.50;;;13.10;99.90;;;;;;5131342;27;20038;-47
2022/04/07 09:28:24;;;;;;;0.50;0.50;;;13.20;99.90;;;;;;5131559;27;20053;-48
2022/04/07 09:30:50;;;;;;;4.50;1.13;;;13.20;99.90;;;;;;5130670;27;20034;-50
2022/04/07 09:33:26;;;;;;;1.05;0.68;;;13.10;99.90;;;;;;5121108;27;20016;-50
2022/04/07 09:36:03;;;;;;;2.83;0.80;;;13.20;99.90;;;;;;5119520;27;20015;-49
2022/04/07 09:38:31;;;;;;;0.60;0.60;;;13.00;99.90;;;;;;5119777;27;20019;-49
2022/04/07 09:41:12;;;;;;;1.13;0.70;;;12.90;99.90;;;;;;5118415;27;20019;-48
2022/04/07 09:43:45;;;;;;;0.93;0.63;;;12.80;99.90;;;;;;5110703;28;20057;-49
2022/04/07 09:46:12;;;;;;;1.92;0.85;;;12.60;99.90;;;;;;5110759;28;20019;-47
2022/04/07 09:48:37;;;;;;;1.35;0.60;;;12.60;99.90;;;;;;5110049;28;20032;-50
2022/04/07 09:51:12;;;;;;;0.68;0.60;;;12.60;99.90;;;;;;5110729;28;20011;-48
2022/04/07 09:53:39;;;;;;;2.55;0.65;;;12.40;99.90;;;;;;5110638;28;20048;-48
2022/04/07 09:56:06;;;;;;;1.00;0.80;;;12.20;99.90;;;;;;5108941;28;20556;-50
2022/04/07 09:58:35;;;;;;;2.05;0.55;;;12.00;99.90;;;;;;5110052;28;20055;-49
2022/04/07 10:01:03;;;;;;;0.68;0.47;;;12.00;99.90;;;;;;5110494;28;20613;-47
2022/04/07 10:03:32;;;;;;;1.75;0.77;;;11.80;99.90;;;;;;5110999;28;20560;-46
2022/04/07 10:05:58;;;;;;;0.98;0.70;;;11.80;99.90;;;;;;5110731;28;20060;-49
2022/04/07 10:08:25;;;;;;;0.88;0.65;;;11.70;99.90;;;;;;5110822;28;20031;-47
2022/04/07 10:10:52;;;;;;;2.53;0.80;;;11.60;99.90;;;;;;5109946;28;20020;-48
2022/04/07 10:13:18;;;;;;;0.80;0.70;;;11.50;99.90;;;;;;5110596;28;20024;-49
2022/04/07 10:15:45;;;;;;;1.00;0.52;;;11.30;99.90;;;;;;5110535;28;20026;-50
2022/04/07 10:18:28;;;;;;;0.63;0.57;;;11.20;99.90;;;;;;5110227;28;20055;-47
2022/04/07 10:20:58;;;;;;;0.73;0.73;;;11.10;99.90;;;;;;5109308;28;20331;-47
2022/04/07 10:23:30;;;;;;;0.90;0.63;;;11.00;99.90;;;;;;5109859;28;20413;-47
2022/04/07 10:25:58;;;;;;;0.50;0.40;;;11.00;99.90;;;;;;5109985;28;20156;-49
2022/04/07 10:28:25;;;;;;;0.52;0.52;;;11.20;99.90;;;;;;5109454;28;20019;-48
2022/04/07 10:30:53;;;;;;;1.23;0.63;;;11.30;99.90;;;;;;5109451;28;20015;-46
2022/04/07 10:33:36;;;;;;;0.73;0.63;;;11.50;99.90;;;;;;5109615;28;20027;-47
2022/04/07 10:36:16;;;;;;;0.60;0.60;;;11.60;99.90;;;;;;5109743;28;20027;-46
2022/04/07 10:38:43;;;;;;;1.05;0.60;;;11.60;99.90;;;;;;5108999;28;20026;-47
2022/04/07 10:41:09;;;;;;;0.45;0.40;;;11.70;99.90;;;;;;5108126;28;20028;-49
2022/04/07 10:43:40;;;;;;;2.75;0.75;;;11.80;99.90;;;;;;5108365;28;20414;-47
2022/04/07 10:46:11;;;;;;;2.63;0.60;;;11.80;99.90;;;;;;5109959;28;20439;-49
2022/04/07 10:48:51;;;;;;;;;;;11.90;99.90;;;;;;5109618;28;20045;-46
2022/04/07 10:51:18;;;;;;;1.27;0.40;;;11.80;99.90;;;;;;5109819;28;19907;-47
2022/04/07 10:53:53;;;;;;;0.40;0.40;;;11.90;99.90;;;;;;5109997;28;20094;-49
2022/04/07 10:56:34;;;;;;;0.60;0.60;;;11.90;99.90;;;;;;5109525;28;20055;-49
2022/04/07 10:59:14;;;;;;;1.00;0.40;;;11.90;99.90;;;;;;5108917;28;20027;-47
2022/04/07 11:01:40;;;;;;;0.60;0.60;;;11.80;99.90;;;;;;5109244;28;20039;-49
2022/04/07 11:04:18;;;;;;;1.77;0.45;;;11.80;99.90;;;;;;5109308;28;20023;-47
2022/04/07 11:07:11;;;;;;;0.40;0.40;;;11.80;99.90;;;;;;5109403;28;20019;-46
2022/04/07 11:09:58;;;;;;;1.77;0.52;;;11.80;99.90;;;;;;5108608;28;20047;-47
2022/04/07 11:12:23;;;;;;;1.25;0.50;;;12.20;99.90;;;;;;5086879;28;20111;-51
2022/04/07 11:15:13;;;;;;;2.28;0.40;;;12.40;99.90;;;;;;5109254;28;20102;-48
2022/04/07 11:17:42;;;;;;;3.40;0.30;;;12.60;99.90;;;;;;5109037;28;20111;-47
2022/04/07 11:20:26;;;;;;;0.20;0.20;;;12.60;99.90;;;;;;5108433;28;20027;-47
2022/04/07 11:23:08;;;;;;;0.20;0.20;;;12.50;99.90;;;;;;5109168;28;20451;-46
2022/04/07 11:25:39;;;;;;;1.13;0.55;;;12.50;99.90;;;;;;5109445;28;20323;-45
2022/04/07 11:28:19;;;;;;;0.38;0.32;;;12.90;99.90;;;;;;5109206;28;20032;-46
2022/04/07 11:30:48;;;;;;;0.52;0.40;;;13.20;99.90;;;;;;5108415;28;20153;-48
2022/04/07 11:36:00;;;;;;;3.63;0.90;;;12.60;99.90;;;;;;5108517;28;20039;-48
2022/04/07 11:38:34;;;;;;;1.08;0.45;;;11.20;99.90;;;;;;5108942;28;20051;-50
2022/04/07 11:41:10;;;;;;;1.70;0.88;;;10.10;99.90;;;;;;5108588;28;20034;-46
2022/04/07 11:43:44;;;;;;;3.28;1.00;;;9.10;99.90;;;;;;5109354;28;20039;-49
2022/04/07 11:46:10;;;;;;;1.65;0.65;;;8.50;99.90;;;;;;5109145;28;20447;-45
2022/04/07 11:48:38;;;;;;;0.60;0.50;;;8.20;99.90;;;;;;5108387;28;20034;-49
2022/04/07 11:51:17;;;;;;;1.75;0.50;;;8.00;99.90;;;;;;5108881;28;20019;-49
2022/04/07 11:53:46;;;;;;;0.73;0.40;;;7.90;99.90;;;;;;5109020;28;20403;-48
2022/04/07 11:56:17;;;;;;;2.25;1.00;;;7.70;99.90;;;;;;5109181;28;20047;-47
2022/04/07 11:58:48;;;;;;;1.30;0.68;;;7.60;99.90;;;;;;5108074;28;20133;-47
2022/04/07 12:01:14;;;;;;;;;;;7.50;99.90;;;;;;5109301;28;20420;-45
2022/04/07 12:03:39;;;;;;;0.65;0.60;;;7.50;99.90;;;;;;5108875;28;19908;-48
2022/04/07 12:06:05;;;;;;;3.40;0.50;;;7.40;99.90;;;;;;5109130;28;20027;-47
2022/04/07 12:08:31;;;;;;;1.27;0.70;;;7.30;99.90;;;;;;5108680;28;20687;-46
2022/04/07 12:10:57;;;;;;;1.90;0.60;;;7.30;99.90;;;;;;5106827;28;20028;-47
2022/04/07 12:13:22;;;;;;;1.67;0.63;;;7.30;99.90;;;;;;5108734;28;20023;-48
2022/04/07 12:15:48;;;;;;;1.52;0.90;;;7.10;99.90;;;;;;5108793;28;20153;-47
2022/04/07 12:18:23;;;;;;;3.45;0.93;;;7.10;99.90;;;;;;5108608;28;20032;-46
2022/04/07 12:20:58;;;;;;;2.05;0.98;;;7.20;99.90;;;;;;5108021;28;20028;-44
2022/04/07 12:23:26;;;;;;;1.38;0.70;;;7.30;99.90;;;;;;5108908;28;20054;-47
2022/04/07 12:25:59;;;;;;;2.80;1.10;;;7.30;99.90;;;;;;5108360;28;20510;-48
2022/04/07 12:28:32;;;;;;;1.20;0.50;;;7.40;99.90;;;;;;5109000;28;20079;-46
2022/04/07 12:30:58;;;;;;;0.95;0.63;;;7.40;99.90;;;;;;5108322;28;20023;-46
2022/04/07 12:33:39;;;;;;;1.35;0.93;;;7.50;99.90;;;;;;5108381;28;20028;-46
2022/04/07 12:36:06;;;;;;;1.35;0.70;;;7.70;99.90;;;;;;5108357;28;20091;-45
2022/04/07 12:38:32;;;;;;;0.70;0.70;;;7.80;99.90;;;;;;5107505;28;20063;-46
2022/04/07 12:41:09;;;;;;;1.17;0.60;;;8.00;99.90;;;;;;5106687;28;20043;-46
2022/04/07 12:43:50;;;;;;;3.78;0.77;;;8.30;99.90;;;;;;5110496;28;20047;-46
2022/04/07 12:46:17;;;;;;;2.47;0.75;;;8.50;99.90;;;;;;5110074;27;20026;-45
2022/04/07 12:49:03;;;;;;;1.27;0.60;;;8.70;99.90;;;;;;5110340;28;20164;-46
2022/04/07 12:51:29;;;;;;;5.22;0.90;;;8.90;99.90;;;;;;5121787;27;20015;-46
2022/04/07 12:54:09;;;;;;;2.50;0.60;;;8.90;99.90;;;;;;5120146;27;20027;-46
2022/04/07 12:56:34;;;;;;;1.77;0.50;;;8.90;99.90;;;;;;5119724;27;20023;-46